Time;durP1;ratioP1;P1;durP2;ratioP2;P2;SDS_P1;SDS_P2;PMS_P1;PMS_P2;Temp;Humidity;BMP_temperature;BMP_pressure;BME280_temperature;BME280_humidity;BME280_pressure;Samples;Min_cycle;Max_cycle;Signal;HPM_P1;HPM_P2
2023/06/13 00:00:49;;;;;;;2.40;1.70;;;15.00;67.90;;;;;;5042286;28;20022;-82
2023/06/13 00:03:15;;;;;;;2.13;1.80;;;15.00;67.90;;;;;;5044655;28;20770;-83
2023/06/13 00:05:46;;;;;;;1.95;1.77;;;15.00;67.90;;;;;;5045065;28;20037;-82
2023/06/13 00:08:21;;;;;;;1.95;1.70;;;15.00;68.10;;;;;;5024167;28;20025;-82
2023/06/13 00:10:50;;;;;;;4.13;1.90;;;15.00;68.00;;;;;;5042734;28;20013;-82
2023/06/13 00:13:20;;;;;;;2.40;1.92;;;15.00;68.00;;;;;;5051952;28;20071;-80
2023/06/13 00:15:58;;;;;;;4.35;2.00;;;14.90;68.00;;;;;;5038145;28;20029;-81
2023/06/13 00:18:43;;;;;;;2.15;1.70;;;14.90;68.20;;;;;;5042288;28;20024;-81
2023/06/13 00:21:11;;;;;;;1.70;1.60;;;14.80;68.50;;;;;;5058349;28;20073;-80
2023/06/13 00:23:37;;;;;;;2.20;2.00;;;14.80;68.60;;;;;;5051369;28;20024;-82
2023/06/13 00:26:05;;;;;;;1.80;1.70;;;14.80;68.50;;;;;;5054674;28;20017;-78
2023/06/13 00:28:34;;;;;;;2.40;2.20;;;14.70;68.50;;;;;;5057676;28;20022;-79
2023/06/13 00:31:00;;;;;;;2.85;1.92;;;14.70;68.70;;;;;;5058358;28;20144;-79
2023/06/13 00:33:31;;;;;;;1.70;1.60;;;14.60;68.70;;;;;;5058498;28;20013;-78
2023/06/13 00:36:03;;;;;;;2.85;1.95;;;14.60;69.00;;;;;;5056080;28;20433;-83
2023/06/13 00:38:32;;;;;;;;;;;14.60;69.20;;;;;;5044398;28;20041;-83
2023/06/13 00:40:58;;;;;;;1.90;1.60;;;14.50;69.40;;;;;;5043945;28;19905;-81
2023/06/13 00:43:28;;;;;;;1.95;1.75;;;14.50;69.50;;;;;;5057165;28;20022;-81
2023/06/13 00:45:56;;;;;;;1.83;1.70;;;14.50;69.60;;;;;;5056112;28;20087;-81
2023/06/13 00:48:22;;;;;;;1.60;1.50;;;14.50;69.50;;;;;;5039659;28;20014;-79
2023/06/13 00:50:49;;;;;;;2.50;2.10;;;14.50;69.50;;;;;;5057012;28;20034;-80
2023/06/13 00:53:19;;;;;;;2.95;1.92;;;14.40;70.20;;;;;;5043672;28;20051;-79
2023/06/13 00:55:50;;;;;;;2.50;2.30;;;14.30;69.70;;;;;;5054556;28;20112;-79
2023/06/13 00:58:16;;;;;;;10.60;2.58;;;14.30;69.90;;;;;;5056881;28;20100;-80
2023/06/13 01:00:44;;;;;;;2.38;2.03;;;14.30;70.20;;;;;;5057617;28;20100;-79
2023/06/13 01:03:14;;;;;;;3.03;2.40;;;14.20;70.40;;;;;;5040163;28;20032;-82
2023/06/13 01:05:41;;;;;;;4.70;2.50;;;14.10;70.70;;;;;;5057614;28;20048;-79
2023/06/13 01:08:10;;;;;;;5.40;2.35;;;14.10;70.90;;;;;;5057622;28;20022;-79
2023/06/13 01:10:40;;;;;;;3.25;2.08;;;14.00;71.00;;;;;;5067851;28;20036;-79
2023/06/13 01:13:28;;;;;;;2.88;2.20;;;14.00;71.20;;;;;;5039062;28;20032;-81
2023/06/13 01:15:59;;;;;;;2.40;2.20;;;14.00;71.50;;;;;;5050566;28;20021;-80
2023/06/13 01:18:30;;;;;;;3.35;2.22;;;14.00;71.40;;;;;;5055676;28;20009;-80
2023/06/13 01:21:04;;;;;;;2.90;1.60;;;14.00;71.30;;;;;;5055999;28;20009;-80
2023/06/13 01:23:50;;;;;;;4.50;2.28;;;14.00;71.20;;;;;;5038275;28;20048;-80
2023/06/13 01:26:34;;;;;;;4.45;2.10;;;14.00;71.30;;;;;;5045855;28;20498;-82
2023/06/13 01:29:03;;;;;;;2.30;2.03;;;14.00;71.30;;;;;;5043739;28;20426;-79
2023/06/13 01:31:31;;;;;;;2.58;2.00;;;13.90;71.20;;;;;;5054449;28;20048;-79
2023/06/13 01:33:58;;;;;;;2.55;1.85;;;13.90;71.30;;;;;;5054125;28;20031;-79
2023/06/13 01:36:26;;;;;;;2.67;2.38;;;13.90;71.50;;;;;;5055512;28;20034;-80
2023/06/13 01:38:53;;;;;;;2.42;1.98;;;13.80;71.60;;;;;;5054715;28;20025;-82
2023/06/13 01:41:22;;;;;;;1.52;1.40;;;13.70;71.90;;;;;;5053443;28;20025;-80
2023/06/13 01:43:47;;;;;;;2.50;2.00;;;13.70;72.70;;;;;;5055234;28;20109;-81
2023/06/13 01:46:28;;;;;;;3.03;2.15;;;13.60;72.40;;;;;;5053635;28;20036;-80
2023/06/13 01:49:16;;;;;;;2.92;2.00;;;13.60;72.60;;;;;;5055167;28;20041;-80
2023/06/13 01:51:52;;;;;;;2.10;1.95;;;13.60;73.00;;;;;;5037465;28;20030;-80
2023/06/13 01:54:22;;;;;;;2.15;1.98;;;13.60;72.90;;;;;;5054450;28;20032;-80
2023/06/13 01:56:52;;;;;;;2.20;2.00;;;13.50;73.00;;;;;;5038002;28;20049;-78
2023/06/13 01:59:23;;;;;;;3.50;2.20;;;13.50;73.00;;;;;;5058205;28;20021;-78
2023/06/13 02:01:52;;;;;;;2.38;2.10;;;;;;;;;;5056560;28;20032;-79
2023/06/13 02:04:18;;;;;;;4.35;2.58;;;13.30;73.00;;;;;;5056036;28;20045;-80
2023/06/13 02:06:49;;;;;;;3.58;2.53;;;13.20;73.70;;;;;;5054919;28;20014;-80
2023/06/13 02:09:15;;;;;;;2.63;2.42;;;13.20;73.90;;;;;;5054399;28;20045;-81
2023/06/13 02:11:41;;;;;;;3.97;2.30;;;13.10;74.20;;;;;;5053980;28;20026;-81
2023/06/13 02:14:08;;;;;;;2.45;2.15;;;13.10;74.50;;;;;;5053891;28;20026;-80
2023/06/13 02:16:34;;;;;;;2.45;2.10;;;13.10;74.40;;;;;;5058627;28;20016;-80
2023/06/13 02:19:01;;;;;;;3.63;1.90;;;13.10;74.40;;;;;;5070757;28;20024;-81
2023/06/13 02:21:29;;;;;;;2.40;1.92;;;13.00;74.40;;;;;;5064053;28;20059;-82
2023/06/13 02:23:58;;;;;;;2.45;1.73;;;13.00;74.60;;;;;;5058778;28;20021;-83
2023/06/13 02:26:28;;;;;;;2.65;2.42;;;13.00;74.60;;;;;;5049180;28;20394;-81
2023/06/13 02:28:57;;;;;;;3.10;2.25;;;13.00;74.50;;;;;;5038772;28;20021;-82
2023/06/13 02:31:24;;;;;;;5.20;2.10;;;12.90;74.60;;;;;;5039202;28;20110;-84
2023/06/13 02:33:51;;;;;;;3.03;1.85;;;12.90;74.60;;;;;;5050702;28;20025;-81
2023/06/13 02:36:17;;;;;;;4.18;1.80;;;12.90;74.80;;;;;;5044839;28;20022;-83
2023/06/13 02:38:44;;;;;;;3.38;1.80;;;12.90;74.60;;;;;;5021291;28;20033;-82
2023/06/13 02:41:11;;;;;;;1.75;1.48;;;12.80;74.60;;;;;;5021987;28;20103;-83
2023/06/13 02:43:38;;;;;;;1.60;1.50;;;12.80;74.70;;;;;;5022709;28;20463;-82
2023/06/13 02:46:04;;;;;;;2.63;1.85;;;12.80;74.70;;;;;;5043079;28;20497;-79
2023/06/13 02:48:34;;;;;;;2.80;2.05;;;12.80;74.50;;;;;;5043677;28;20092;-81
2023/06/13 02:51:00;;;;;;;4.07;1.83;;;12.70;74.50;;;;;;5038665;28;20082;-83
2023/06/13 02:53:27;;;;;;;2.58;2.05;;;12.70;74.40;;;;;;5050679;28;20018;-82
2023/06/13 02:55:54;;;;;;;2.95;2.17;;;12.70;74.40;;;;;;5050437;28;20036;-81
2023/06/13 02:58:21;;;;;;;2.63;2.00;;;12.70;74.70;;;;;;5028684;28;20029;-82
2023/06/13 03:00:48;;;;;;;5.85;2.30;;;12.60;74.50;;;;;;5038984;28;20025;-84
2023/06/13 03:03:16;;;;;;;2.22;1.95;;;12.60;74.40;;;;;;5038698;28;20033;-82
2023/06/13 03:06:24;;;;;;;3.03;1.67;;;12.60;74.60;;;;;;5016735;28;20029;-76
2023/06/13 03:08:38;;;;;;;1.70;1.60;;;12.60;74.80;;;;;;5007790;28;20483;-76
2023/06/13 03:11:09;;;;;;;1.98;1.70;;;12.60;74.90;;;;;;5016441;28;20029;-76
2023/06/13 03:13:36;;;;;;;2.22;1.75;;;12.50;75.00;;;;;;5015976;28;20025;-76
2023/06/13 03:16:08;;;;;;;3.33;2.15;;;12.50;75.10;;;;;;5015164;28;20125;-74
2023/06/13 03:18:40;;;;;;;2.63;1.77;;;12.50;75.20;;;;;;5020184;28;20029;-76
2023/06/13 03:21:14;;;;;;;2.38;1.67;;;12.50;75.60;;;;;;5018941;28;20033;-75
2023/06/13 03:23:42;;;;;;;4.55;2.30;;;12.40;76.00;;;;;;5030429;28;20029;-75
2023/06/13 03:26:16;;;;;;;3.08;2.25;;;12.40;76.10;;;;;;5034675;28;20045;-76
2023/06/13 03:28:46;;;;;;;3.95;2.70;;;12.30;76.10;;;;;;5017301;28;20476;-77
2023/06/13 03:31:32;;;;;;;4.45;2.05;;;12.30;76.20;;;;;;5035531;28;20029;-76
2023/06/13 03:33:59;;;;;;;5.05;2.05;;;12.30;76.40;;;;;;5035365;28;20105;-76
2023/06/13 03:36:35;;;;;;;2.05;1.85;;;12.30;76.70;;;;;;5036207;28;20028;-76
2023/06/13 03:39:01;;;;;;;4.32;2.95;;;12.30;76.70;;;;;;5019154;28;20029;-76
2023/06/13 03:41:36;;;;;;;3.47;2.20;;;12.30;76.70;;;;;;5016994;28;20033;-76
2023/06/13 03:44:13;;;;;;;8.45;2.10;;;12.30;76.80;;;;;;5034660;28;20025;-77
2023/06/13 03:46:40;;;;;;;2.58;2.22;;;12.30;76.90;;;;;;5034492;28;20045;-75
2023/06/13 03:49:14;;;;;;;4.15;2.10;;;12.30;76.90;;;;;;5033903;28;20300;-77
2023/06/13 03:51:44;;;;;;;4.20;2.33;;;12.20;76.90;;;;;;5034212;28;20095;-76
2023/06/13 03:54:13;;;;;;;2.95;1.70;;;12.20;77.30;;;;;;5049743;28;20633;-82
2023/06/13 03:56:48;;;;;;;2.45;1.75;;;12.20;77.30;;;;;;5042418;28;20053;-80
2023/06/13 03:59:17;;;;;;;2.50;1.88;;;12.20;77.20;;;;;;5024006;28;20025;-80
2023/06/13 04:01:47;;;;;;;3.30;1.88;;;12.30;77.40;;;;;;5043378;28;20036;-82
2023/06/13 04:04:13;;;;;;;3.38;1.95;;;12.30;77.20;;;;;;5054846;28;20117;-79
2023/06/13 04:06:47;;;;;;;2.83;1.52;;;12.30;77.00;;;;;;5053592;28;20037;-81
2023/06/13 04:09:17;;;;;;;3.53;2.30;;;12.30;77.10;;;;;;5053574;28;20363;-81
2023/06/13 04:11:45;;;;;;;2.97;1.70;;;12.30;76.90;;;;;;5070169;28;20029;-80
2023/06/13 04:14:15;;;;;;;2.08;1.70;;;12.30;76.90;;;;;;5070847;28;20048;-79
2023/06/13 04:16:44;;;;;;;2.50;1.80;;;12.30;76.90;;;;;;5071907;28;20032;-78
2023/06/13 04:19:18;;;;;;;1.85;1.38;;;12.40;77.00;;;;;;5073445;28;20032;-79
2023/06/13 04:21:51;;;;;;;1.52;1.42;;;12.50;76.70;;;;;;5073150;28;20025;-79
2023/06/13 04:24:18;;;;;;;3.42;1.23;;;12.50;76.30;;;;;;5055326;28;20052;-78
2023/06/13 04:26:47;;;;;;;4.47;1.92;;;12.50;76.10;;;;;;5053439;28;20033;-79
2023/06/13 04:29:17;;;;;;;2.88;1.55;;;12.50;75.80;;;;;;5055048;28;20068;-81
2023/06/13 04:31:43;;;;;;;2.47;1.83;;;12.50;76.00;;;;;;5053455;28;20080;-79
2023/06/13 04:34:11;;;;;;;2.25;2.05;;;12.60;75.80;;;;;;5054361;28;20026;-79
2023/06/13 04:36:49;;;;;;;2.05;1.73;;;12.60;75.50;;;;;;5053942;28;20048;-80
2023/06/13 04:39:17;;;;;;;2.28;1.90;;;12.70;75.00;;;;;;5061511;28;20053;-78
2023/06/13 04:41:43;;;;;;;1.83;1.63;;;12.70;74.60;;;;;;5072002;28;20031;-79
2023/06/13 04:44:09;;;;;;;3.15;2.33;;;12.80;74.80;;;;;;5069830;28;20027;-79
2023/06/13 04:46:41;;;;;;;2.33;1.80;;;12.80;74.10;;;;;;5070595;28;20015;-79
2023/06/13 04:49:09;;;;;;;2.92;2.17;;;12.80;74.10;;;;;;5054720;28;20033;-79
2023/06/13 04:51:35;;;;;;;2.80;1.50;;;12.90;74.30;;;;;;5053928;28;20044;-80
2023/06/13 04:54:01;;;;;;;2.38;1.58;;;13.00;74.10;;;;;;5053157;28;20056;-80
2023/06/13 04:56:31;;;;;;;2.28;1.90;;;13.00;73.40;;;;;;5055461;28;20037;-80
2023/06/13 04:58:57;;;;;;;3.40;1.65;;;13.10;73.00;;;;;;5052539;28;20037;-84
2023/06/13 05:01:26;;;;;;;3.60;1.70;;;13.10;72.70;;;;;;5049988;28;20803;-80
2023/06/13 05:03:53;;;;;;;4.03;2.08;;;13.30;72.50;;;;;;5046237;28;20340;-79
2023/06/13 05:06:20;;;;;;;3.35;1.63;;;13.40;71.90;;;;;;5027388;28;20025;-80
2023/06/13 05:08:46;;;;;;;3.15;1.90;;;;;;;;;;5027461;28;20029;-80
2023/06/13 05:11:13;;;;;;;1.40;1.30;;;16.40;66.40;;;;;;5039332;28;20482;-79
2023/06/13 05:13:39;;;;;;;1.13;1.10;;;18.80;61.50;;;;;;5022751;28;20048;-80
2023/06/13 05:16:09;;;;;;;2.70;1.92;;;21.10;57.40;;;;;;5047755;28;20028;-78
2023/06/13 05:18:40;;;;;;;1.85;1.70;;;22.70;51.00;;;;;;5038319;28;20022;-79
2023/06/13 05:21:07;;;;;;;2.38;2.17;;;23.40;48.10;;;;;;5040076;28;20020;-81
2023/06/13 05:23:38;;;;;;;3.15;1.70;;;23.80;46.40;;;;;;5022632;28;20053;-81
2023/06/13 05:26:08;;;;;;;2.90;1.73;;;24.00;46.40;;;;;;5039087;28;20080;-79
2023/06/13 05:28:40;;;;;;;2.03;1.83;;;24.60;44.60;;;;;;5024829;28;20415;-80
2023/06/13 05:31:08;;;;;;;1.98;1.50;;;24.70;44.40;;;;;;5060366;28;20013;-80
2023/06/13 05:33:34;;;;;;;2.80;1.70;;;25.10;45.40;;;;;;5050427;28;20049;-79
2023/06/13 05:36:00;;;;;;;1.40;1.35;;;26.10;43.40;;;;;;5056433;28;20084;-78
2023/06/13 05:38:26;;;;;;;2.25;1.70;;;26.80;41.90;;;;;;5046252;28;20051;-80
2023/06/13 05:40:52;;;;;;;1.70;1.60;;;26.90;40.80;;;;;;5060105;28;20478;-81
2023/06/13 05:43:20;;;;;;;2.33;1.80;;;27.20;41.00;;;;;;5040422;28;20093;-79
2023/06/13 05:45:47;;;;;;;2.10;1.83;;;27.50;39.90;;;;;;5058245;28;20362;-80
2023/06/13 05:48:16;;;;;;;2.90;1.80;;;27.30;39.70;;;;;;5060012;28;20033;-79
2023/06/13 05:50:46;;;;;;;1.73;1.60;;;27.00;40.20;;;;;;5042536;28;20064;-80
2023/06/13 05:53:16;;;;;;;2.80;1.40;;;27.10;39.70;;;;;;5061856;28;20091;-80
2023/06/13 05:55:44;;;;;;;2.42;1.67;;;27.10;39.90;;;;;;5060676;28;20071;-81
2023/06/13 05:58:12;;;;;;;1.73;1.63;;;27.30;40.30;;;;;;5042337;28;20036;-80
2023/06/13 06:00:41;;;;;;;2.00;1.65;;;27.80;39.30;;;;;;5061058;28;20023;-80
2023/06/13 06:03:07;;;;;;;1.50;1.40;;;27.80;39.10;;;;;;5060219;28;20358;-82
2023/06/13 06:05:33;;;;;;;1.80;1.70;;;28.00;39.20;;;;;;5068040;28;20076;-78
2023/06/13 06:08:01;;;;;;;2.60;2.10;;;28.40;38.10;;;;;;5076525;28;20048;-78
2023/06/13 06:10:27;;;;;;;2.33;1.80;;;28.10;37.20;;;;;;5056450;28;20445;-76
2023/06/13 06:12:59;;;;;;;3.30;2.15;;;27.20;38.20;;;;;;5064828;28;20051;-76
2023/06/13 06:15:27;;;;;;;2.08;1.88;;;26.90;40.00;;;;;;5044230;28;20469;-76
2023/06/13 06:18:18;;;;;;;1.58;1.48;;;26.90;38.90;;;;;;5054383;28;20032;-77
2023/06/13 06:20:50;;;;;;;4.93;1.63;;;27.40;38.60;;;;;;5034370;28;20021;-77
2023/06/13 06:23:22;;;;;;;;;;;27.40;37.90;;;;;;5035288;28;20390;-78
2023/06/13 06:25:51;;;;;;;1.60;1.50;;;27.20;37.80;;;;;;5016470;28;20378;-77
2023/06/13 06:28:22;;;;;;;2.35;1.80;;;27.60;38.70;;;;;;5036059;28;20018;-80
2023/06/13 06:30:53;;;;;;;2.28;2.08;;;;;;;;;;5038386;28;20282;-79
2023/06/13 06:33:20;;;;;;;2.85;2.20;;;28.30;36.60;;;;;;5019759;28;20022;-80
2023/06/13 06:35:46;;;;;;;2.95;1.88;;;28.20;37.30;;;;;;5037308;28;20425;-79
2023/06/13 06:38:12;;;;;;;4.97;2.00;;;27.70;37.40;;;;;;5065739;28;20055;-83
2023/06/13 06:40:38;;;;;;;2.25;1.70;;;;;;;;;;5047673;28;20052;-83
2023/06/13 06:43:04;;;;;;;5.90;1.98;;;27.30;37.40;;;;;;5041816;28;20029;-83
2023/06/13 06:45:33;;;;;;;3.05;1.92;;;;;;;;;;5059784;28;20028;-82
2023/06/13 06:48:01;;;;;;;3.13;2.13;;;;;;;;;;5060498;28;20519;-82
2023/06/13 06:50:28;;;;;;;5.97;1.98;;;;;;;;;;5058245;28;20037;-83
2023/06/13 06:52:57;;;;;;;4.07;1.98;;;27.00;36.60;;;;;;5026951;28;20636;-83
2023/06/13 06:55:23;;;;;;;1.63;1.52;;;;;;;;;;5042690;28;20052;-82
2023/06/13 06:57:56;;;;;;;2.25;1.70;;;26.70;37.60;;;;;;5032384;28;20037;-81
2023/06/13 07:00:26;;;;;;;3.13;1.95;;;27.30;38.40;;;;;;5056797;28;20040;-83
2023/06/13 07:02:54;;;;;;;3.65;2.05;;;;;;;;;;5043787;28;20390;-82
2023/06/13 07:05:21;;;;;;;5.28;2.05;;;;;;;;;;5044220;28;20738;-83
2023/06/13 07:07:47;;;;;;;3.03;2.30;;;;;;;;;;5043261;28;20150;-81
2023/06/13 07:10:13;;;;;;;3.75;1.60;;;26.60;36.40;;;;;;5042581;28;20025;-82
2023/06/13 07:12:42;;;;;;;3.53;1.90;;;26.40;37.60;;;;;;5024496;28;20018;-82
2023/06/13 07:15:08;;;;;;;3.08;1.73;;;26.40;37.60;;;;;;5039601;28;20040;-83
2023/06/13 07:17:34;;;;;;;2.83;1.67;;;26.20;37.40;;;;;;5063624;28;20051;-83
2023/06/13 07:20:05;;;;;;;1.90;1.63;;;25.80;38.00;;;;;;5045664;28;20037;-82
2023/06/13 07:22:32;;;;;;;4.40;1.80;;;24.60;38.60;;;;;;5045518;28;20057;-82
2023/06/13 07:24:58;;;;;;;2.90;1.70;;;22.60;41.10;;;;;;5045248;28;20043;-82
2023/06/13 07:27:24;;;;;;;4.20;2.10;;;21.00;44.00;;;;;;5045441;28;20017;-82
2023/06/13 07:29:50;;;;;;;5.35;2.10;;;20.00;46.20;;;;;;5043685;28;20052;-81
2023/06/13 07:32:22;;;;;;;3.45;1.65;;;19.40;47.80;;;;;;5043291;28;20025;-81
2023/06/13 07:34:49;;;;;;;2.88;1.88;;;18.90;48.40;;;;;;5025454;28;20029;-81
2023/06/13 07:37:15;;;;;;;4.80;1.80;;;18.50;48.80;;;;;;5045337;28;20060;-82
2023/06/13 07:39:41;;;;;;;3.95;2.28;;;18.20;49.50;;;;;;5042650;28;20036;-82
2023/06/13 07:42:07;;;;;;;6.10;2.20;;;18.10;50.10;;;;;;5063575;28;20111;-81
2023/06/13 07:44:33;;;;;;;3.40;1.70;;;18.10;49.80;;;;;;5053455;28;20021;-80
2023/06/13 07:47:00;;;;;;;4.03;2.25;;;18.00;50.30;;;;;;5067260;28;20081;-81
2023/06/13 07:49:29;;;;;;;3.17;1.80;;;;;;;;;;5061849;28;20025;-83
2023/06/13 07:51:55;;;;;;;3.13;1.80;;;17.80;50.20;;;;;;5064181;28;20032;-83
2023/06/13 07:54:21;;;;;;;6.82;2.15;;;17.80;51.00;;;;;;5070562;28;20076;-81
2023/06/13 07:56:51;;;;;;;2.95;1.73;;;17.90;50.80;;;;;;5063357;28;20565;-81
2023/06/13 07:59:20;;;;;;;2.60;1.85;;;17.90;50.80;;;;;;5034001;28;20423;-82
2023/06/13 08:01:46;;;;;;;11.35;1.83;;;17.90;51.00;;;;;;5048522;28;20089;-81
2023/06/13 08:04:12;;;;;;;2.22;1.80;;;18.10;51.00;;;;;;5047853;28;21034;-81
2023/06/13 08:06:39;;;;;;;4.95;2.67;;;18.10;50.40;;;;;;5044067;28;20528;-83
2023/06/13 08:09:08;;;;;;;3.63;1.92;;;18.10;50.30;;;;;;5041992;28;20025;-81
2023/06/13 08:11:38;;;;;;;7.60;3.08;;;18.10;50.90;;;;;;5045159;28;20081;-81
2023/06/13 08:14:07;;;;;;;6.75;1.85;;;18.20;50.90;;;;;;5047649;28;20033;-81
2023/06/13 08:16:33;;;;;;;6.97;2.50;;;;;;;;;;5061153;28;20138;-81
2023/06/13 08:19:04;;;;;;;1.90;1.52;;;18.30;49.00;;;;;;5043932;28;20025;-81
2023/06/13 08:21:30;;;;;;;6.13;2.00;;;18.20;49.80;;;;;;5061732;28;20013;-81
2023/06/13 08:23:57;;;;;;;4.35;2.30;;;18.40;50.30;;;;;;5059826;28;20028;-81
2023/06/13 08:26:24;;;;;;;6.57;2.10;;;18.50;49.60;;;;;;5032916;28;20018;-81
2023/06/13 08:28:51;;;;;;;4.32;2.15;;;18.50;48.80;;;;;;5040879;28;20037;-82
2023/06/13 08:31:23;;;;;;;5.60;2.03;;;18.50;48.80;;;;;;5041065;28;20115;-81
2023/06/13 08:33:55;;;;;;;;;;;18.50;49.20;;;;;;5060385;28;20014;-82
2023/06/13 08:36:26;;;;;;;3.07;1.70;;;18.60;49.20;;;;;;5063397;28;19905;-81
2023/06/13 08:38:55;;;;;;;2.83;1.73;;;18.70;48.80;;;;;;5043613;28;20263;-81
2023/06/13 08:41:21;;;;;;;2.95;1.77;;;18.70;49.20;;;;;;5060870;28;20135;-81
2023/06/13 08:43:50;;;;;;;5.25;2.20;;;18.90;49.10;;;;;;5061116;28;20037;-81
2023/06/13 08:46:19;;;;;;;2.45;1.60;;;19.00;48.00;;;;;;5065144;28;20017;-81
2023/06/13 08:48:47;;;;;;;3.45;2.17;;;19.00;48.20;;;;;;5075321;28;20108;-81
2023/06/13 08:51:16;;;;;;;3.13;1.80;;;19.00;47.80;;;;;;5075204;28;20032;-81
2023/06/13 08:53:51;;;;;;;6.38;1.90;;;19.10;48.40;;;;;;5056046;28;20013;-81
2023/06/13 08:56:21;;;;;;;6.35;2.15;;;19.20;49.00;;;;;;5054409;28;20021;-81
2023/06/13 08:59:07;;;;;;;5.97;2.30;;;19.40;48.00;;;;;;5040274;28;20018;-82
2023/06/13 09:01:52;;;;;;;3.58;2.25;;;;;;;;;;5052875;28;20148;-81
2023/06/13 09:04:31;;;;;;;8.32;1.90;;;19.50;46.50;;;;;;5064822;28;20033;-81
2023/06/13 09:06:58;;;;;;;1.92;1.58;;;19.40;47.00;;;;;;5075020;28;20013;-81
2023/06/13 09:09:35;;;;;;;6.65;2.70;;;;;;;;;;5066640;28;20104;-82
2023/06/13 09:12:08;;;;;;;6.38;1.90;;;19.70;45.20;;;;;;5053707;28;20108;-81
2023/06/13 09:14:34;;;;;;;3.75;1.85;;;;;;;;;;5054827;28;20029;-81
2023/06/13 09:17:03;;;;;;;8.50;2.60;;;;;;;;;;5044911;28;20021;-81
2023/06/13 09:19:35;;;;;;;1.85;1.67;;;19.70;44.20;;;;;;5042568;28;20033;-81
2023/06/13 09:22:01;;;;;;;2.38;1.90;;;19.80;44.90;;;;;;5041934;28;20084;-82
2023/06/13 09:24:28;;;;;;;4.78;2.38;;;20.00;44.60;;;;;;5042634;28;20382;-81
2023/06/13 09:26:57;;;;;;;2.38;1.52;;;20.10;44.20;;;;;;5040759;28;20044;-82
2023/06/13 09:29:33;;;;;;;3.97;1.88;;;20.20;44.20;;;;;;5041557;28;20014;-81
2023/06/13 09:31:59;;;;;;;2.75;2.13;;;20.20;43.30;;;;;;5041124;28;20088;-82
2023/06/13 09:34:28;;;;;;;4.63;1.90;;;20.20;42.80;;;;;;5020587;28;20030;-81
2023/06/13 09:37:05;;;;;;;3.08;2.30;;;20.10;42.60;;;;;;5039572;28;20025;-82
2023/06/13 09:39:34;;;;;;;3.05;1.67;;;20.20;41.90;;;;;;5040223;28;20033;-80
2023/06/13 09:42:01;;;;;;;3.47;1.98;;;20.30;42.40;;;;;;5036829;28;20025;-80
2023/06/13 09:44:32;;;;;;;3.05;1.98;;;20.40;42.30;;;;;;5031009;28;20036;-83
2023/06/13 09:47:00;;;;;;;5.85;2.45;;;20.80;42.10;;;;;;5040405;28;20030;-81
2023/06/13 09:49:33;;;;;;;3.10;2.33;;;;;;;;;;5025070;28;20112;-82
2023/06/13 09:52:05;;;;;;;4.13;2.15;;;;;;;;;;5030622;28;20029;-83
2023/06/13 09:54:42;;;;;;;5.85;2.03;;;20.80;40.30;;;;;;5051267;28;20674;-81
2023/06/13 09:57:20;;;;;;;4.90;1.75;;;;;;;;;;5043317;28;20052;-82
2023/06/13 09:59:47;;;;;;;2.67;2.42;;;21.00;39.50;;;;;;5043966;28;20053;-82
2023/06/13 10:02:14;;;;;;;3.20;2.15;;;;;;;;;;5043692;28;20033;-82
2023/06/13 10:04:41;;;;;;;5.30;1.98;;;21.10;39.00;;;;;;5059722;28;20029;-83
2023/06/13 10:07:07;;;;;;;2.85;2.10;;;;;;;;;;5060600;28;20450;-83
2023/06/13 10:09:33;;;;;;;4.18;2.25;;;21.00;38.30;;;;;;5062572;28;20025;-82
2023/06/13 10:12:00;;;;;;;2.47;2.10;;;;;;;;;;5042789;28;20025;-81
2023/06/13 10:14:32;;;;;;;3.08;1.83;;;21.00;38.90;;;;;;5047605;28;20475;-83
2023/06/13 10:17:06;;;;;;;5.60;2.65;;;21.30;39.70;;;;;;5025237;28;20033;-82
2023/06/13 10:19:36;;;;;;;2.10;1.90;;;21.70;39.60;;;;;;5042372;28;20454;-82
2023/06/13 10:22:04;;;;;;;2.28;2.00;;;21.80;39.10;;;;;;5041692;28;20033;-81
2023/06/13 10:24:30;;;;;;;3.80;2.00;;;22.00;38.30;;;;;;5053160;28;20060;-82
2023/06/13 10:26:59;;;;;;;2.42;2.22;;;22.00;37.50;;;;;;5048466;28;20055;-82
2023/06/13 10:29:50;;;;;;;8.13;2.50;;;22.00;37.50;;;;;;5025980;28;20021;-82
2023/06/13 10:33:01;;;;;;;5.85;2.25;;;22.00;37.10;;;;;;5028972;28;20023;-82
2023/06/13 10:35:46;;;;;;;3.30;2.20;;;;;;;;;;5056099;28;20013;-82
2023/06/13 10:38:48;;;;;;;2.25;2.05;;;22.10;37.20;;;;;;5051796;28;20033;-81
2023/06/13 10:41:33;;;;;;;2.50;1.77;;;;;;;;;;5040604;28;20075;-82
2023/06/13 10:44:00;;;;;;;3.08;1.98;;;;;;;;;;5039770;28;20104;-82
2023/06/13 10:46:26;;;;;;;2.15;1.92;;;;;;;;;;5040308;28;20060;-82
2023/06/13 10:48:53;;;;;;;3.22;2.15;;;22.00;37.40;;;;;;5039127;28;20080;-82
2023/06/13 10:51:27;;;;;;;5.70;2.17;;;22.10;37.50;;;;;;5025938;28;20040;-83
2023/06/13 10:54:05;;;;;;;2.35;2.00;;;22.20;38.00;;;;;;5025388;28;20029;-81
2023/06/13 10:56:37;;;;;;;2.90;1.88;;;22.20;37.40;;;;;;5060949;28;20029;-82
2023/06/13 10:59:35;;;;;;;4.68;1.98;;;22.30;37.90;;;;;;5052442;28;20017;-81
2023/06/13 11:02:04;;;;;;;2.95;1.90;;;22.50;37.60;;;;;;5046733;28;20052;-81
2023/06/13 11:04:32;;;;;;;3.78;2.13;;;;;;;;;;5075152;28;20039;-82
2023/06/13 11:07:22;;;;;;;5.88;2.17;;;22.50;36.50;;;;;;5074410;28;20115;-82
2023/06/13 11:10:10;;;;;;;2.60;2.30;;;22.50;37.10;;;;;;5057334;28;20013;-81
2023/06/13 11:12:38;;;;;;;4.82;2.70;;;22.70;37.10;;;;;;5049081;28;20568;-82
2023/06/13 11:15:05;;;;;;;4.00;2.50;;;22.60;36.00;;;;;;5044248;28;20079;-81
2023/06/13 11:17:33;;;;;;;3.95;2.38;;;22.60;36.90;;;;;;5025556;28;20083;-82
2023/06/13 11:19:59;;;;;;;3.47;2.55;;;22.60;37.30;;;;;;5038921;28;20047;-83
2023/06/13 11:22:33;;;;;;;2.25;1.95;;;22.60;36.80;;;;;;5040941;28;20128;-82
2023/06/13 11:25:14;;;;;;;1.83;1.67;;;22.70;37.40;;;;;;5038372;28;20093;-82
2023/06/13 11:27:42;;;;;;;2.67;2.33;;;23.00;37.30;;;;;;5038989;28;20101;-81
2023/06/13 11:30:18;;;;;;;2.38;1.90;;;23.30;36.60;;;;;;5039695;28;20494;-81
2023/06/13 11:32:53;;;;;;;3.20;2.58;;;23.40;36.60;;;;;;5033426;28;20469;-81
2023/06/13 11:35:33;;;;;;;4.20;2.42;;;23.40;36.10;;;;;;5024419;28;20029;-83
2023/06/13 11:38:04;;;;;;;5.05;2.67;;;23.40;36.00;;;;;;5025828;28;20083;-81
2023/06/13 11:43:09;;;;;;;2.70;2.50;;;;;;;;;;5147816;22;20032;-81
2023/06/13 11:45:36;;;;;;;3.88;2.90;;;;;;;;;;5065630;28;20056;-82
2023/06/13 11:48:02;;;;;;;2.90;2.05;;;;;;;;;;5073656;28;20036;-82
2023/06/13 11:50:28;;;;;;;2.65;2.38;;;;;;;;;;5063968;28;20039;-82
2023/06/13 11:53:08;;;;;;;6.25;2.80;;;;;;;;;;5064068;28;20478;-82
2023/06/13 11:55:39;;;;;;;3.20;2.10;;;;;;;;;;5062929;28;20481;-81
2023/06/13 11:58:10;;;;;;;7.97;2.20;;;23.20;35.80;;;;;;5064050;28;20082;-80
2023/06/13 12:00:55;;;;;;;3.77;2.07;;;23.50;36.30;;;;;;5070356;28;20033;-82
2023/06/13 12:03:25;;;;;;;4.63;2.70;;;23.60;36.50;;;;;;5057576;28;20279;-82
2023/06/13 12:05:52;;;;;;;3.15;2.10;;;23.70;36.00;;;;;;5069771;28;20021;-82
2023/06/13 12:08:18;;;;;;;2.67;2.13;;;23.60;36.00;;;;;;5063162;28;20028;-82
2023/06/13 12:10:48;;;;;;;2.33;2.13;;;23.70;36.20;;;;;;5077409;28;20082;-82
2023/06/13 12:13:20;;;;;;;3.20;2.38;;;24.00;35.00;;;;;;5078223;28;20112;-82
2023/06/13 12:15:46;;;;;;;2.90;2.35;;;23.90;33.70;;;;;;5067724;28;20013;-83
2023/06/13 12:18:12;;;;;;;4.15;2.28;;;23.90;34.20;;;;;;5072047;28;20029;-82
2023/06/13 12:20:50;;;;;;;3.17;2.30;;;;;;;;;;5083316;28;20051;-83
2023/06/13 12:23:19;;;;;;;2.47;2.20;;;24.00;33.20;;;;;;5064102;28;20116;-83
2023/06/13 12:25:49;;;;;;;5.35;2.60;;;23.90;33.10;;;;;;5079441;28;20017;-82
2023/06/13 12:28:37;;;;;;;2.50;2.22;;;24.00;33.10;;;;;;5070138;28;20053;-83
2023/06/13 12:31:09;;;;;;;2.10;1.90;;;;;;;;;;5060614;28;20032;-83
2023/06/13 12:33:36;;;;;;;4.68;2.35;;;24.10;33.40;;;;;;5061462;28;20025;-83
2023/06/13 12:36:32;;;;;;;3.10;2.35;;;24.20;34.10;;;;;;5045446;28;20053;-82
2023/06/13 12:38:54;;;;;;;6.03;2.13;;;;;;;;;;5063810;28;20049;-82
2023/06/13 12:41:25;;;;;;;6.18;2.85;;;24.10;32.70;;;;;;5077661;28;20039;-83
2023/06/13 12:43:53;;;;;;;;;;;24.10;32.60;;;;;;5068588;28;20097;-83
2023/06/13 12:46:22;;;;;;;5.60;2.55;;;24.00;33.60;;;;;;5086106;28;19908;-82
2023/06/13 12:48:48;;;;;;;2.63;2.35;;;24.20;33.80;;;;;;5076875;28;20021;-80
2023/06/13 12:51:30;;;;;;;2.55;2.30;;;;;;;;;;5092049;28;20055;-82
2023/06/13 12:54:08;;;;;;;5.53;2.60;;;;;;;;;;5054403;28;20075;-81
2023/06/13 12:56:34;;;;;;;2.78;2.03;;;24.30;31.80;;;;;;5071455;28;20021;-81
2023/06/13 12:59:01;;;;;;;3.63;2.00;;;24.20;33.00;;;;;;5064449;28;20117;-82
2023/06/13 13:01:27;;;;;;;6.32;2.20;;;24.40;33.20;;;;;;5068220;28;20028;-83
2023/06/13 13:03:54;;;;;;;4.47;1.95;;;;;;;;;;5045184;28;20040;-81
2023/06/13 13:06:25;;;;;;;4.63;2.03;;;;;;;;;;5065494;28;20111;-82
2023/06/13 13:08:52;;;;;;;2.63;2.00;;;24.20;34.30;;;;;;5067566;28;20036;-82
2023/06/13 13:11:19;;;;;;;3.17;2.30;;;;;;;;;;5064505;28;20032;-82
2023/06/13 13:13:46;;;;;;;2.25;1.98;;;24.30;33.60;;;;;;5063434;28;20048;-82
2023/06/13 13:16:12;;;;;;;4.13;2.30;;;24.30;34.00;;;;;;5062318;28;20555;-83
2023/06/13 13:18:38;;;;;;;3.63;2.38;;;24.50;34.50;;;;;;5063070;28;20029;-82